PMH weather

Greater Portsmouth Regional Airport
Portsmouth, Ohio, United States

Public forecast

Using degrees Fahrenheit for public forecast. Weather courtesy of forecast.io.

Closest aviation weather report (METAR) to Greater Portsmouth Regional Airport

Closest report is Ashland Regional Airport, 17.9 nm (33.2 km) SSE. Retrieved 2019/10/23 08:56 UTC (7 minutes ago):

KDWU 230856Z AUTO RMK AO2 SLPNO 6//// PWINO FZRANO RVRNO

Closest aviation forecast (TAF) to Greater Portsmouth Regional Airport

Closest forecast is Tri-State/Milton J. Ferguson Field, 31.5 nm (58.4 km) SSE. Retrieved 2019/10/23 06:22 UTC (3 hours ago):

TAF KHTS 230520Z 2306/2406 27005KT P6SM FEW080 FM231100 VRB03KT P6SM SKC FM231500 25008KT P6SM SKC FM232300 00000KT P6SM SKC